X  CloseMetar Aviation Weather Data     CYYC Calgary International

Temperature

21°C Temperature

11°C Dewpoint

53% Humidity



Wind

11 KM/H

 7 MPH

 3 M/S

 6 KTS



140°
South East
Current Conditions

Mostly Scattered Clouds Mostly Scattered Clouds
Pressure 1011.22 (hPa) - 29.86 (in)
Visibility 15 (mi) - 24.1 (km)
Airport
Airport-code CYYC

Location Calgary International 4 (km)

Metar:
CYYC 190100Z 14006KT 100V170 15SM SCT030CB 21/11 A2986 RMK CB4 SH NNW-NE SLP107 DENSITY ALT 5300FT

Time: 18-06-2019 19:00